Time;durP1;ratioP1;P1;durP2;ratioP2;P2;SDS_P1;SDS_P2;PMS_P1;PMS_P2;Temp;Humidity;BMP_temperature;BMP_pressure;BME280_temperature;BME280_humidity;BME280_pressure;Samples;Min_cycle;Max_cycle;Signal;HPM_P1;HPM_P2
2021/10/18 00:00:11;;;;;;;1.10;0.73;;;;;;;4.64;54.24;98140.94;5053050;28;20092;-66
2021/10/18 00:02:36;;;;;;;0.63;0.40;;;;;;;4.69;54.15;98153.91;5053706;28;20049;-66
2021/10/18 00:05:04;;;;;;;0.20;0.20;;;;;;;4.75;54.12;98136.72;5053743;28;20477;-66
2021/10/18 00:07:29;;;;;;;0.22;0.22;;;;;;;4.78;54.04;98130.84;5053949;28;20041;-67
2021/10/18 00:09:55;;;;;;;2.28;0.30;;;;;;;4.79;54.12;98132.53;5053545;28;20083;-68
2021/10/18 00:12:21;;;;;;;0.20;0.20;;;;;;;4.79;54.21;98137.97;5053590;28;20037;-68
2021/10/18 00:14:47;;;;;;;0.30;0.30;;;;;;;4.74;54.39;98127.75;5053434;28;20551;-68
2021/10/18 00:17:14;;;;;;;0.77;0.30;;;;;;;4.67;54.65;98129.63;5053408;28;20049;-67
2021/10/18 00:19:40;;;;;;;0.55;0.55;;;;;;;4.53;54.88;98133.44;5053347;28;20044;-68
2021/10/18 00:22:05;;;;;;;0.60;0.60;;;;;;;4.42;55.17;98121.34;5053893;28;20037;-67
2021/10/18 00:24:31;;;;;;;0.20;0.20;;;;;;;4.30;55.34;98117.56;5053873;28;20111;-68
2021/10/18 00:26:57;;;;;;;0.30;0.30;;;;;;;4.21;55.58;98119.69;5053429;28;20033;-67
2021/10/18 00:29:22;;;;;;;0.20;0.20;;;;;;;4.14;55.70;98118.88;5034994;28;20496;-67
2021/10/18 00:31:49;;;;;;;0.20;0.20;;;;;;;4.06;55.81;98119.91;5053499;28;20399;-68
2021/10/18 00:34:14;;;;;;;0.40;0.40;;;;;;;4.03;55.95;98118.47;5053396;28;20064;-67
2021/10/18 00:36:40;;;;;;;0.30;0.30;;;;;;;3.98;55.94;98115.53;5053347;28;20052;-66
2021/10/18 00:39:06;;;;;;;0.20;0.20;;;;;;;3.97;55.92;98110.31;5053247;28;20076;-66
2021/10/18 00:41:32;;;;;;;0.20;0.20;;;;;;;3.98;55.99;98112.81;5053039;28;20056;-66
2021/10/18 00:44:01;;;;;;;0.20;0.20;;;;;;;3.95;55.90;98115.13;5053171;28;20460;-67
2021/10/18 00:46:27;;;;;;;0.35;0.35;;;;;;;3.94;56.01;98118.88;5035111;28;20123;-67
2021/10/18 00:48:54;;;;;;;0.30;0.30;;;;;;;3.92;56.03;98108.22;5052996;28;20510;-66
2021/10/18 00:51:24;;;;;;;0.52;0.52;;;;;;;3.92;56.02;98112.84;5035160;28;20041;-67
2021/10/18 00:53:52;;;;;;;0.50;0.50;;;;;;;3.91;55.79;98103.00;5052955;28;20033;-66
2021/10/18 00:56:19;;;;;;;0.40;0.40;;;;;;;3.89;55.95;98111.34;5052709;28;20411;-67
2021/10/18 00:58:45;;;;;;;1.45;1.30;;;;;;;3.86;55.92;98104.47;5052557;28;20095;-69
2021/10/18 01:01:11;;;;;;;0.65;0.65;;;;;;;3.84;55.98;98103.84;5051534;28;20071;-68
2021/10/18 01:03:37;;;;;;;4.03;3.72;;;;;;;3.84;55.90;98094.84;5053469;28;20128;-68
2021/10/18 01:06:03;;;;;;;4.28;2.40;;;;;;;3.84;55.97;98098.41;5052599;28;20064;-67
2021/10/18 01:08:29;;;;;;;3.30;2.45;;;;;;;3.89;55.83;98097.78;5052593;28;20064;-66
2021/10/18 01:10:55;;;;;;;2.72;1.98;;;;;;;3.98;55.57;98093.78;5052223;28;20047;-68
2021/10/18 01:13:21;;;;;;;3.38;1.40;;;;;;;4.13;55.37;98090.03;5052844;28;20124;-65
2021/10/18 01:15:47;;;;;;;0.82;0.82;;;;;;;4.27;54.99;98086.25;5052170;28;20037;-65
2021/10/18 01:18:13;;;;;;;1.02;0.80;;;;;;;4.43;54.74;98084.09;5052293;28;20090;-65
2021/10/18 01:20:40;;;;;;;1.35;1.05;;;;;;;4.53;54.45;98090.78;5052279;28;20048;-64
2021/10/18 01:23:09;;;;;;;0.82;0.82;;;;;;;4.63;54.33;98087.59;5052288;28;20040;-64
2021/10/18 01:25:36;;;;;;;2.33;0.85;;;;;;;4.72;54.27;98077.31;5051939;28;20048;-65
2021/10/18 01:28:03;;;;;;;1.95;1.40;;;;;;;4.76;54.37;98081.28;5052105;28;20132;-64
2021/10/18 01:30:29;;;;;;;1.27;0.98;;;;;;;4.78;54.30;98092.78;5052099;28;20174;-63
2021/10/18 01:32:56;;;;;;;0.38;0.38;;;;;;;4.80;54.34;98082.53;5052492;28;20135;-64
2021/10/18 01:35:23;;;;;;;1.02;1.02;;;;;;;4.83;54.43;98092.13;5051978;28;20450;-64
2021/10/18 01:37:49;;;;;;;1.58;0.40;;;;;;;4.85;54.45;98082.69;5052032;28;20179;-65
2021/10/18 01:40:17;;;;;;;0.75;0.32;;;;;;;4.90;54.67;98084.78;5051871;28;20080;-65
2021/10/18 01:42:44;;;;;;;0.60;0.60;;;;;;;4.94;54.64;98088.72;5051925;28;20046;-65
2021/10/18 01:45:13;;;;;;;14.38;1.45;;;;;;;5.00;54.48;98082.41;5052065;28;20131;-66
2021/10/18 01:47:39;;;;;;;3.50;1.42;;;;;;;5.07;54.47;98090.56;5052360;28;20037;-67
2021/10/18 01:50:14;;;;;;;1.38;1.15;;;;;;;5.13;54.45;98084.25;5052145;28;20048;-66
2021/10/18 01:52:41;;;;;;;1.65;0.75;;;;;;;5.16;54.46;98083.81;5001529;28;20045;-64
2021/10/18 01:55:07;;;;;;;0.90;0.85;;;;;;;5.18;54.41;98081.72;5034064;28;20048;-64
2021/10/18 01:57:33;;;;;;;0.82;0.82;;;;;;;5.19;54.37;98077.09;5052255;28;20223;-65
2021/10/18 01:59:59;;;;;;;1.42;1.25;;;;;;;5.16;54.46;98072.91;5051362;28;20075;-64
2021/10/18 02:02:25;;;;;;;0.32;0.32;;;;;;;5.20;54.46;98074.16;5051871;28;20519;-67
2021/10/18 02:04:51;;;;;;;0.70;0.70;;;;;;;5.19;54.55;98077.94;5051907;28;20045;-69
2021/10/18 02:07:17;;;;;;;6.43;1.35;;;;;;;5.17;54.64;98073.78;5051823;28;20045;-65
2021/10/18 02:09:42;;;;;;;0.57;0.57;;;;;;;5.17;54.37;98081.94;5051614;28;20048;-65
2021/10/18 02:12:08;;;;;;;2.90;2.65;;;;;;;5.11;54.87;98069.19;5034596;28;20041;-67
2021/10/18 02:14:34;;;;;;;2.45;2.22;;;;;;;5.01;54.99;98078.66;5055914;28;20127;-65
2021/10/18 02:17:00;;;;;;;2.63;1.13;;;;;;;4.94;55.10;98074.31;5055637;28;20049;-66
2021/10/18 02:19:26;;;;;;;0.60;0.60;;;;;;;4.87;55.25;98068.88;5055134;28;20040;-67
2021/10/18 02:21:51;;;;;;;0.88;0.80;;;;;;;4.79;55.49;98061.81;5055482;28;20411;-66
2021/10/18 02:24:17;;;;;;;1.08;0.43;;;;;;;4.73;55.49;98068.13;5055666;28;20045;-66
2021/10/18 02:26:43;;;;;;;0.57;0.57;;;;;;;4.70;55.53;98060.41;5055426;28;20128;-65
2021/10/18 02:29:09;;;;;;;0.20;0.20;;;;;;;4.72;55.48;98058.28;5055824;28;20052;-66
2021/10/18 02:31:36;;;;;;;0.30;0.30;;;;;;;4.76;55.37;98048.66;5055335;28;20491;-66
2021/10/18 02:34:03;;;;;;;1.33;0.55;;;;;;;4.78;55.31;98049.25;5055649;28;20044;-66
2021/10/18 02:36:29;;;;;;;0.30;0.30;;;;;;;4.83;55.13;98043.16;5055299;28;20036;-66
2021/10/18 02:38:55;;;;;;;0.68;0.68;;;;;;;4.89;55.00;98054.03;5055258;28;20064;-66
2021/10/18 02:41:21;;;;;;;0.32;0.32;;;;;;;4.96;54.93;98042.25;5055384;28;20041;-66
2021/10/18 02:43:47;;;;;;;0.32;0.32;;;;;;;5.00;54.80;98048.94;5055667;28;20052;-65
2021/10/18 02:46:13;;;;;;;5.30;0.85;;;;;;;4.98;54.84;98048.34;5055922;28;20044;-69
2021/10/18 02:48:38;;;;;;;0.40;0.40;;;;;;;4.97;54.89;98044.78;5055433;28;20103;-67
2021/10/18 02:51:04;;;;;;;0.30;0.30;;;;;;;4.93;55.06;98038.09;5054866;28;20127;-67
2021/10/18 02:53:30;;;;;;;0.28;0.28;;;;;;;4.89;55.14;98034.16;5054699;28;20044;-66
2021/10/18 02:55:56;;;;;;;0.55;0.55;;;;;;;4.84;55.22;98029.34;5055009;28;20051;-66
2021/10/18 02:58:22;;;;;;;1.58;0.93;;;;;;;4.83;55.18;98032.28;5055095;28;20060;-67
2021/10/18 03:00:48;;;;;;;0.40;0.40;;;;;;;4.82;55.18;98030.63;5054230;28;20415;-67
2021/10/18 03:03:14;;;;;;;0.30;0.30;;;;;;;4.81;55.30;98028.97;5054775;28;20415;-66
2021/10/18 03:05:39;;;;;;;1.35;0.68;;;;;;;4.82;55.19;98026.03;5054869;28;20056;-66
2021/10/18 03:08:05;;;;;;;0.20;0.20;;;;;;;4.84;55.25;98032.06;5054543;28;20037;-67
2021/10/18 03:10:31;;;;;;;0.30;0.30;;;;;;;4.90;55.19;98036.66;5054608;28;20554;-66
2021/10/18 03:12:57;;;;;;;0.20;0.20;;;;;;;4.95;55.03;98027.00;5054840;28;20052;-66
2021/10/18 03:15:22;;;;;;;0.32;0.32;;;;;;;5.00;54.95;98021.75;5054703;28;20041;-68
2021/10/18 03:17:48;;;;;;;0.55;0.55;;;;;;;5.04;54.97;98017.53;5036450;28;20443;-68
2021/10/18 03:20:14;;;;;;;0.30;0.30;;;;;;;5.08;54.83;98013.34;5054424;28;20152;-66
2021/10/18 03:22:40;;;;;;;0.35;0.35;;;;;;;5.14;54.74;98015.16;5062781;28;20070;-67
2021/10/18 03:25:08;;;;;;;0.40;0.40;;;;;;;5.20;54.60;98014.28;5061348;28;20048;-67
2021/10/18 03:27:34;;;;;;;1.08;0.63;;;;;;;5.30;54.52;98021.97;5064110;28;20036;-67
2021/10/18 03:30:00;;;;;;;0.60;0.60;;;;;;;5.38;54.43;98026.31;5062039;28;20518;-67
2021/10/18 03:32:25;;;;;;;0.20;0.20;;;;;;;5.48;54.31;98025.78;5063474;28;20124;-65
2021/10/18 03:34:51;;;;;;;1.20;0.70;;;;;;;5.53;54.25;98018.63;5062267;28;20407;-67
2021/10/18 03:37:17;;;;;;;0.38;0.38;;;;;;;5.57;54.30;98021.78;5036767;28;20047;-68
2021/10/18 03:39:42;;;;;;;0.63;0.63;;;;;;;5.59;54.24;98017.78;5061644;28;20195;-70
2021/10/18 03:42:08;;;;;;;0.30;0.30;;;;;;;5.62;54.22;98019.19;5062672;28;20451;-68
2021/10/18 03:44:34;;;;;;;8.07;1.15;;;;;;;5.68;54.22;98012.03;5063616;28;20079;-71
2021/10/18 03:47:00;;;;;;;0.52;0.52;;;;;;;5.72;54.22;98021.44;5061618;28;20152;-67
2021/10/18 03:49:26;;;;;;;0.20;0.20;;;;;;;5.81;54.00;98021.97;5062771;28;20071;-67
2021/10/18 03:51:52;;;;;;;0.90;0.85;;;;;;;5.85;53.77;98015.84;5044857;28;20040;-68
2021/10/18 03:54:17;;;;;;;0.22;0.22;;;;;;;5.95;53.81;98016.19;5061468;28;20144;-68
2021/10/18 03:56:43;;;;;;;0.50;0.50;;;;;;;6.05;53.63;98023.03;5063525;28;20115;-68
2021/10/18 03:59:09;;;;;;;0.25;0.25;;;;;;;6.12;53.52;98015.63;5062491;28;20055;-66
2021/10/18 04:01:35;;;;;;;0.30;0.30;;;;;;;6.20;53.56;98017.22;5060911;28;20185;-66
2021/10/18 04:04:01;;;;;;;0.20;0.20;;;;;;;6.27;53.37;98018.81;5063114;28;20074;-66
2021/10/18 04:06:26;;;;;;;0.30;0.30;;;;;;;6.36;53.32;98015.78;5061895;28;20041;-68
2021/10/18 04:08:54;;;;;;;0.20;0.20;;;;;;;6.43;53.19;98017.41;5061570;28;20488;-69
2021/10/18 04:11:20;;;;;;;0.30;0.30;;;;;;;6.50;53.16;98009.13;5063185;28;20036;-67
2021/10/18 04:13:46;;;;;;;1.13;0.82;;;;;;;6.57;53.01;98014.50;5061873;28;20063;-68
2021/10/18 04:16:12;;;;;;;0.30;0.30;;;;;;;6.69;52.89;98020.84;5064704;28;20048;-66
2021/10/18 04:18:37;;;;;;;0.20;0.20;;;;;;;6.80;52.79;98013.78;5057474;28;20422;-67
2021/10/18 04:21:05;;;;;;;0.30;0.30;;;;;;;6.86;52.75;98012.88;5053390;28;20040;-67
2021/10/18 04:23:32;;;;;;;0.40;0.40;;;;;;;6.89;52.75;98001.50;5054022;28;20435;-67
2021/10/18 04:25:58;;;;;;;0.82;0.82;;;;;;;6.91;52.85;98004.00;5053613;28;20055;-68
2021/10/18 04:28:23;;;;;;;3.30;0.93;;;;;;;6.91;52.97;98007.53;5053261;28;20041;-67
2021/10/18 04:30:49;;;;;;;0.30;0.30;;;;;;;6.91;53.03;98006.72;5034820;28;20104;-68
2021/10/18 04:33:15;;;;;;;0.30;0.30;;;;;;;6.90;53.01;98011.31;5053298;28;20063;-67
2021/10/18 04:35:41;;;;;;;0.30;0.30;;;;;;;6.92;53.06;98003.75;5052816;28;20029;-68
2021/10/18 04:38:07;;;;;;;0.32;0.32;;;;;;;6.94;52.96;97998.06;5053434;28;20045;-68
2021/10/18 04:40:33;;;;;;;0.43;0.43;;;;;;;6.96;53.09;98004.97;5053206;28;20131;-68
2021/10/18 04:42:58;;;;;;;0.50;0.50;;;;;;;6.96;53.08;98006.84;5051442;28;20048;-67
2021/10/18 04:45:24;;;;;;;0.20;0.20;;;;;;;6.98;53.04;98012.94;5051389;28;20094;-67
2021/10/18 04:47:53;;;;;;;0.40;0.40;;;;;;;6.96;53.32;98010.44;5033798;28;20187;-66
2021/10/18 04:50:20;;;;;;;0.30;0.30;;;;;;;6.97;53.29;98006.63;5051927;28;20041;-68
2021/10/18 04:52:46;;;;;;;0.20;0.20;;;;;;;6.98;53.18;98005.56;5052652;28;20459;-68
2021/10/18 04:55:14;;;;;;;0.20;0.20;;;;;;;6.96;53.07;98013.16;5052747;28;20075;-67
2021/10/18 04:58:09;;;;;;;0.52;0.52;;;;;;;6.99;53.53;98012.69;5052863;28;20051;-67
2021/10/18 05:00:41;;;;;;;3.30;0.70;;;;;;;7.01;53.24;98010.56;5039167;28;20068;-66
2021/10/18 05:03:06;;;;;;;0.28;0.28;;;;;;;7.05;53.33;98013.63;5052889;28;20040;-67
2021/10/18 05:05:35;;;;;;;0.20;0.20;;;;;;;7.10;53.29;98012.97;5052823;28;20048;-66
2021/10/18 05:08:13;;;;;;;0.30;0.30;;;;;;;7.16;53.06;98012.84;5052855;28;20151;-68
2021/10/18 05:10:41;;;;;;;1.35;0.63;;;;;;;7.19;53.20;98019.75;5052262;28;20538;-67
2021/10/18 05:13:08;;;;;;;0.73;0.73;;;;;;;7.27;53.07;98015.84;5052350;28;20047;-66
2021/10/18 05:15:34;;;;;;;0.47;0.47;;;;;;;7.36;53.01;98025.38;5050387;28;20067;-67
2021/10/18 05:18:00;;;;;;;0.35;0.35;;;;;;;7.41;52.96;98011.03;5062672;28;20056;-68
2021/10/18 05:20:27;;;;;;;0.40;0.40;;;;;;;7.47;52.90;98015.56;5071760;28;20163;-66
2021/10/18 05:22:53;;;;;;;0.20;0.20;;;;;;;7.52;52.86;98013.78;5071905;28;20037;-67
2021/10/18 05:25:19;;;;;;;0.43;0.43;;;;;;;7.60;52.71;98009.88;5072238;28;20087;-67
2021/10/18 05:27:45;;;;;;;0.80;0.75;;;;;;;7.71;52.59;98010.94;5071997;28;20044;-69
2021/10/18 05:30:12;;;;;;;0.63;0.63;;;;;;;7.76;52.58;98008.34;5071417;28;20037;-68
2021/10/18 05:32:38;;;;;;;1.35;1.08;;;;;;;7.80;52.62;98008.69;5072337;28;20131;-67
2021/10/18 05:35:05;;;;;;;4.78;0.60;;;;;;;7.80;52.74;97997.78;5037739;28;20147;-69
2021/10/18 05:37:31;;;;;;;0.85;0.85;;;;;;;7.81;52.69;97997.53;5072262;28;20051;-68
2021/10/18 05:39:57;;;;;;;0.20;0.20;;;;;;;7.82;52.85;98007.41;5071884;28;20415;-69
2021/10/18 05:42:23;;;;;;;0.30;0.30;;;;;;;7.83;52.69;98000.88;5072133;28;20041;-68
2021/10/18 05:44:49;;;;;;;0.35;0.35;;;;;;;7.91;52.71;97996.94;5054418;28;20069;-69
2021/10/18 05:47:14;;;;;;;0.20;0.20;;;;;;;7.97;52.70;98009.66;5074986;28;20044;-68
2021/10/18 05:49:40;;;;;;;0.77;0.77;;;;;;;7.98;52.49;98005.88;5078744;28;20190;-67
2021/10/18 05:52:06;;;;;;;0.20;0.20;;;;;;;8.00;52.76;98003.72;5060818;28;20036;-68
2021/10/18 05:54:32;;;;;;;2.78;0.45;;;;;;;7.95;52.64;98005.50;5078823;28;20404;-68
2021/10/18 05:56:58;;;;;;;0.52;0.40;;;;;;;7.99;52.72;97996.56;5078924;28;21142;-67
2021/10/18 05:59:24;;;;;;;0.30;0.30;;;;;;;8.05;52.68;98001.13;5078405;28;20051;-67
2021/10/18 06:01:49;;;;;;;0.30;0.30;;;;;;;8.16;52.55;97993.16;5079215;28;20040;-67
2021/10/18 06:04:16;;;;;;;0.77;0.57;;;;;;;8.28;52.17;97991.22;5078888;28;20032;-67
2021/10/18 06:06:42;;;;;;;0.50;0.50;;;;;;;8.36;52.17;97984.53;5078860;28;20037;-67
2021/10/18 06:09:10;;;;;;;0.50;0.50;;;;;;;8.37;52.05;97986.22;5078607;28;20055;-68
2021/10/18 06:11:35;;;;;;;1.13;0.70;;;;;;;8.37;52.11;97980.72;5078382;28;20475;-67
2021/10/18 06:14:01;;;;;;;0.30;0.30;;;;;;;8.40;52.19;97978.34;5061232;28;20133;-66
2021/10/18 06:16:27;;;;;;;0.28;0.28;;;;;;;8.48;52.09;97979.06;5078983;28;20036;-67
2021/10/18 06:18:53;;;;;;;0.50;0.40;;;;;;;8.54;52.17;97969.91;5078132;28;20055;-67
2021/10/18 06:21:18;;;;;;;0.35;0.35;;;;;;;8.58;51.99;97980.13;5078476;28;20050;-65
2021/10/18 06:23:44;;;;;;;0.20;0.20;;;;;;;8.59;51.95;97976.28;5078699;28;20045;-66
2021/10/18 06:26:11;;;;;;;0.52;0.52;;;;;;;8.60;52.17;97971.69;5078564;28;20048;-66
2021/10/18 06:28:41;;;;;;;0.47;0.47;;;;;;;8.62;52.09;97971.44;5078588;28;20040;-66
2021/10/18 06:31:07;;;;;;;0.25;0.25;;;;;;;8.65;52.17;97966.28;5078420;28;20463;-67
2021/10/18 06:33:33;;;;;;;0.50;0.50;;;;;;;8.64;52.05;97967.34;5078192;28;20041;-66
2021/10/18 06:35:59;;;;;;;0.22;0.22;;;;;;;8.72;51.80;97964.25;5078438;28;20051;-67
2021/10/18 06:38:25;;;;;;;3.75;0.60;;;;;;;8.86;51.75;97963.94;5078482;28;20040;-67
2021/10/18 06:40:51;;;;;;;0.50;0.50;;;;;;;9.06;51.43;97964.34;5078352;28;20044;-67
2021/10/18 06:43:19;;;;;;;0.35;0.35;;;;;;;9.32;50.72;97964.81;5078951;28;20066;-67
2021/10/18 06:45:46;;;;;;;1.85;0.40;;;;;;;9.55;50.39;97952.00;5078705;28;20397;-66
2021/10/18 06:48:15;;;;;;;0.40;0.40;;;;;;;9.73;50.30;97948.19;5060482;28;20068;-66
2021/10/18 06:50:43;;;;;;;0.20;0.20;;;;;;;9.92;50.01;97949.59;5078391;28;20045;-66
2021/10/18 06:53:14;;;;;;;0.70;0.63;;;;;;;10.13;49.45;97941.66;5078279;28;20071;-67
2021/10/18 06:55:40;;;;;;;0.30;0.30;;;;;;;10.37;49.49;97949.69;5078263;28;20047;-67
2021/10/18 06:58:07;;;;;;;0.50;0.50;;;;;;;10.46;49.12;97957.19;5077766;28;20127;-67
2021/10/18 07:00:33;;;;;;;0.22;0.22;;;;;;;10.57;49.42;97940.84;5074647;28;20430;-67
2021/10/18 07:02:59;;;;;;;0.30;0.30;;;;;;;10.52;49.57;97938.88;5057246;28;20114;-68
2021/10/18 07:05:25;;;;;;;0.43;0.43;;;;;;;10.52;49.60;97944.38;5074907;28;20523;-67
2021/10/18 07:07:51;;;;;;;0.50;0.47;;;;;;;10.55;49.67;97943.03;5075134;28;20383;-68
2021/10/18 07:10:16;;;;;;;0.20;0.20;;;;;;;10.50;49.89;97947.38;5075160;28;20131;-69
2021/10/18 07:12:42;;;;;;;3.63;0.50;;;;;;;10.50;49.86;97949.28;5075432;28;20102;-68
2021/10/18 07:15:09;;;;;;;0.60;0.50;;;;;;;10.52;50.03;97947.94;5057164;28;20044;-70
2021/10/18 07:17:35;;;;;;;0.50;0.50;;;;;;;10.52;50.07;97941.63;5074634;28;20088;-68
2021/10/18 07:20:03;;;;;;;0.52;0.50;;;;;;;10.47;50.36;97934.16;5074568;28;20052;-66
2021/10/18 07:22:35;;;;;;;0.57;0.47;;;;;;;10.41;50.37;97929.69;5057147;28;20044;-67
2021/10/18 07:25:01;;;;;;;0.75;0.75;;;;;;;10.27;50.79;97948.41;5057999;28;20071;-66
2021/10/18 07:27:26;;;;;;;0.43;0.43;;;;;;;10.14;51.12;97938.66;5074990;28;20119;-66
2021/10/18 07:29:56;;;;;;;0.70;0.40;;;;;;;10.00;51.36;97926.38;5056172;28;20525;-66
2021/10/18 07:32:24;;;;;;;0.30;0.30;;;;;;;9.77;52.01;97933.72;5074408;28;20491;-66
2021/10/18 07:34:50;;;;;;;0.60;0.60;;;;;;;9.66;52.29;97942.88;5074522;28;20068;-67
2021/10/18 07:37:18;;;;;;;0.20;0.20;;;;;;;9.59;52.18;97940.28;5056620;28;20068;-66
2021/10/18 07:39:44;;;;;;;0.20;0.20;;;;;;;9.54;52.45;97928.41;5074545;28;20067;-66
2021/10/18 07:42:14;;;;;;;0.45;0.45;;;;;;;9.53;52.56;97926.78;5074563;28;20032;-68
2021/10/18 07:44:40;;;;;;;0.20;0.20;;;;;;;9.54;52.38;97939.38;5074404;28;20045;-67
2021/10/18 07:47:06;;;;;;;0.40;0.40;;;;;;;9.61;52.03;97934.56;5074296;28;20403;-67
2021/10/18 07:49:36;;;;;;;0.20;0.20;;;;;;;9.65;52.35;97941.22;5074304;28;20045;-66
2021/10/18 07:52:03;;;;;;;3.50;0.40;;;;;;;9.68;52.12;97928.94;5074072;28;20036;-67
2021/10/18 07:54:30;;;;;;;0.22;0.22;;;;;;;9.63;52.20;97935.97;5074286;28;20040;-67
2021/10/18 07:56:56;;;;;;;0.20;0.20;;;;;;;9.63;52.20;97922.28;5074434;28;20039;-66
2021/10/18 07:59:22;;;;;;;0.20;0.20;;;;;;;9.67;52.24;97925.34;5055273;28;20132;-69
2021/10/18 08:01:48;;;;;;;0.77;0.70;;;;;;;9.74;52.17;97933.41;5073960;28;20037;-67
2021/10/18 08:04:14;;;;;;;0.80;0.80;;;;;;;9.79;52.20;97936.19;5056179;28;20040;-67
2021/10/18 08:06:39;;;;;;;0.30;0.25;;;;;;;9.85;52.02;97932.47;5056122;28;20043;-67
2021/10/18 08:09:09;;;;;;;0.40;0.25;;;;;;;9.95;51.85;97931.78;5073989;28;20041;-70
2021/10/18 08:11:35;;;;;;;0.30;0.30;;;;;;;10.08;51.79;97939.63;5039234;28;20152;-69
2021/10/18 08:14:01;;;;;;;0.73;0.73;;;;;;;10.19;51.63;97935.16;5073704;28;20048;-69
2021/10/18 08:16:26;;;;;;;0.65;0.32;;;;;;;10.34;51.18;97931.78;5073877;28;20040;-71
2021/10/18 08:18:52;;;;;;;0.30;0.30;;;;;;;10.47;51.39;97942.38;5073506;28;20055;-67
2021/10/18 08:21:22;;;;;;;0.25;0.25;;;;;;;10.56;51.03;97928.22;5073612;28;20043;-68
2021/10/18 08:23:48;;;;;;;0.20;0.20;;;;;;;10.63;51.27;97928.84;5073784;28;20120;-67
2021/10/18 08:26:13;;;;;;;0.20;0.20;;;;;;;10.69;50.95;97927.81;5073271;28;20495;-67
2021/10/18 08:28:39;;;;;;;0.20;0.20;;;;;;;10.64;51.24;97930.50;5073291;28;20040;-68
2021/10/18 08:31:06;;;;;;;0.40;0.40;;;;;;;10.61;51.50;97920.84;5072613;28;20051;-67
2021/10/18 08:33:32;;;;;;;0.30;0.30;;;;;;;10.52;52.03;97922.41;5073715;28;20051;-67
2021/10/18 08:35:58;;;;;;;0.30;0.30;;;;;;;10.40;52.17;97919.78;5073961;28;20403;-66
2021/10/18 08:41:55;;;;;;;0.20;0.20;;;;;;;10.25;52.40;97914.09;5073262;28;20050;-67
2021/10/18 08:46:26;;;;;;;0.80;0.45;;;;;;;10.23;52.91;97908.00;5073291;28;20043;-68
2021/10/18 08:48:54;;;;;;;3.15;0.30;;;;;;;10.21;52.57;97904.72;5073421;28;20099;-68
2021/10/18 08:51:21;;;;;;;0.13;0.13;;;;;;;10.20;52.74;97905.78;5055367;28;20047;-67
2021/10/18 08:53:48;;;;;;;0.25;0.25;;;;;;;10.26;52.93;97905.59;5073088;28;20458;-69
2021/10/18 08:56:14;;;;;;;0.50;0.25;;;;;;;10.35;52.66;97900.53;5072888;28;20118;-70
2021/10/18 08:58:39;;;;;;;0.20;0.20;;;;;;;10.42;52.41;97900.31;5072998;28;20033;-69
2021/10/18 09:01:05;;;;;;;0.20;0.20;;;;;;;10.44;52.63;97896.25;5072310;28;20051;-68
2021/10/18 09:03:33;;;;;;;0.20;0.20;;;;;;;10.54;52.42;97889.22;5072796;28;20040;-70
2021/10/18 09:06:10;;;;;;;0.13;0.13;;;;;;;10.58;52.30;97898.59;5072742;28;20123;-70
2021/10/18 09:08:40;;;;;;;0.20;0.20;;;;;;;10.56;52.57;97893.38;5072841;28;20040;-68
2021/10/18 09:11:11;;;;;;;0.30;0.30;;;;;;;10.55;52.29;97899.13;5073018;28;20043;-71
2021/10/18 09:13:44;;;;;;;0.30;0.30;;;;;;;10.59;52.17;97901.06;5072679;28;20040;-68
2021/10/18 09:16:13;;;;;;;0.20;0.20;;;;;;;10.68;52.41;97906.94;5073028;28;20098;-67
2021/10/18 09:18:40;;;;;;;0.55;0.30;;;;;;;10.76;52.11;97906.50;5054072;28;20525;-68
2021/10/18 09:21:06;;;;;;;0.50;0.50;;;;;;;10.77;52.40;97901.81;5071805;28;20048;-68
2021/10/18 09:23:37;;;;;;;0.50;0.50;;;;;;;10.73;52.23;97903.41;5072302;28;20422;-67
2021/10/18 09:26:08;;;;;;;0.52;0.52;;;;;;;10.71;52.51;97891.88;5072541;28;20036;-69
2021/10/18 09:28:34;;;;;;;0.30;0.30;;;;;;;10.80;52.32;97909.53;5072756;28;20396;-67
2021/10/18 09:31:00;;;;;;;0.20;0.20;;;;;;;10.85;52.23;97902.19;5071839;28;20045;-69
2021/10/18 09:33:37;;;;;;;0.20;0.20;;;;;;;10.81;52.19;97900.22;5072326;28;20040;-68
2021/10/18 09:36:06;;;;;;;0.60;0.60;;;;;;;10.75;52.56;97893.84;5073012;28;20169;-68
2021/10/18 09:38:32;;;;;;;0.10;0.10;;;;;;;10.67;52.61;97900.63;5072217;28;20075;-69
2021/10/18 09:41:00;;;;;;;2.10;0.95;;;;;;;10.58;52.84;97896.66;5072069;28;20086;-67
2021/10/18 09:43:38;;;;;;;0.20;0.20;;;;;;;10.52;53.00;97890.28;5072134;28;20044;-68
2021/10/18 09:46:17;;;;;;;0.20;0.20;;;;;;;10.51;53.17;97891.41;5071970;28;20055;-69
2021/10/18 10:54:02;;;;;;;0.20;0.20;;;;;;;10.90;52.52;97881.38;5075497;28;20135;-69
2021/10/18 10:56:31;;;;;;;0.20;0.20;;;;;;;10.86;52.55;97889.28;5075060;28;20106;-67
2021/10/18 10:58:59;;;;;;;0.13;0.13;;;;;;;10.82;52.90;97883.47;5074137;28;20483;-68
2021/10/18 11:01:54;;;;;;;0.30;0.30;;;;;;;10.78;52.84;97876.84;5074471;28;20040;-66
2021/10/18 11:04:29;;;;;;;0.20;0.20;;;;;;;10.76;52.73;97873.53;5055525;28;20044;-65
2021/10/18 11:07:15;;;;;;;0.22;0.22;;;;;;;10.78;52.91;97871.34;5074511;28;20041;-65
2021/10/18 11:09:53;;;;;;;0.10;0.10;;;;;;;10.77;53.15;97866.94;5075108;28;20518;-68
2021/10/18 11:12:27;;;;;;;0.35;0.35;;;;;;;10.75;53.22;97877.38;5074491;28;20045;-67
2021/10/18 11:15:01;;;;;;;0.30;0.30;;;;;;;10.72;53.22;97879.78;5074555;28;20048;-65
2021/10/18 11:17:30;;;;;;;0.52;0.30;;;;;;;10.62;53.75;97883.28;5074284;28;20059;-68
2021/10/18 11:19:58;;;;;;;0.20;0.20;;;;;;;10.55;53.66;97882.63;5074228;28;20411;-68
2021/10/18 11:22:29;;;;;;;0.30;0.30;;;;;;;10.48;53.78;97878.19;5074685;28;20128;-69
2021/10/18 11:24:56;;;;;;;0.20;0.20;;;;;;;10.44;54.07;97871.53;5074580;28;20037;-68
2021/10/18 11:27:30;;;;;;;0.20;0.20;;;;;;;10.40;54.05;97864.91;5074392;28;20049;-68
2021/10/18 11:29:57;;;;;;;;;;;;;;;10.33;54.27;97872.47;5074251;28;20044;-69
2021/10/18 11:32:23;;;;;;;0.50;0.50;;;;;;;10.27;54.21;97862.53;5074938;28;19916;-68
2021/10/18 11:34:49;;;;;;;0.20;0.20;;;;;;;10.21;54.13;97860.81;5074332;28;20045;-70
2021/10/18 11:37:15;;;;;;;0.20;0.20;;;;;;;10.15;54.32;97863.47;5074390;28;20055;-70
2021/10/18 11:39:40;;;;;;;0.30;0.30;;;;;;;10.09;54.24;97859.03;5074748;28;20511;-67
2021/10/18 11:42:14;;;;;;;0.20;0.20;;;;;;;10.06;54.67;97853.22;5074448;28;20044;-68
2021/10/18 11:44:55;;;;;;;0.30;0.30;;;;;;;10.00;54.58;97850.41;5047849;28;20509;-66
2021/10/18 11:47:32;;;;;;;0.20;0.20;;;;;;;9.95;54.66;97849.50;5068466;28;20122;-67
2021/10/18 11:50:19;;;;;;;0.30;0.30;;;;;;;9.90;54.90;97854.94;5073367;28;20067;-66
2021/10/18 11:52:56;;;;;;;0.65;0.40;;;;;;;9.87;54.53;97847.22;5072922;28;20608;-70
2021/10/18 11:55:35;;;;;;;1.13;0.45;;;;;;;9.83;54.78;97849.63;5072069;28;20052;-68
2021/10/18 11:58:04;;;;;;;0.43;0.43;;;;;;;9.80;54.55;97850.13;5071140;28;20453;-68
2021/10/18 12:00:42;;;;;;;0.30;0.30;;;;;;;9.76;54.81;97863.53;5069226;28;20048;-67
2021/10/18 12:03:14;;;;;;;0.43;0.43;;;;;;;9.74;54.76;97862.13;5051648;28;20451;-72
2021/10/18 12:05:42;;;;;;;0.28;0.28;;;;;;;9.70;54.96;97864.56;5051280;28;20164;-71
2021/10/18 12:08:09;;;;;;;0.20;0.20;;;;;;;9.66;54.67;97860.66;5051131;28;20561;-67
2021/10/18 12:10:36;;;;;;;0.30;0.30;;;;;;;9.64;55.09;97858.16;5067585;28;20044;-68
2021/10/18 12:13:06;;;;;;;0.20;0.20;;;;;;;9.59;55.07;97844.38;5070406;28;20055;-67
2021/10/18 12:15:37;;;;;;;0.45;0.45;;;;;;;9.55;55.29;97840.47;5071047;28;20072;-67
2021/10/18 12:18:03;;;;;;;1.08;0.95;;;;;;;9.49;55.18;97848.88;5070950;28;20055;-70
2021/10/18 12:20:29;;;;;;;0.35;0.35;;;;;;;9.39;55.42;97846.81;5070514;28;20131;-67
2021/10/18 12:23:04;;;;;;;0.20;0.20;;;;;;;9.27;55.79;97847.72;5071163;28;20135;-67
2021/10/18 12:25:34;;;;;;;0.40;0.40;;;;;;;9.17;55.89;97841.28;5069893;28;20044;-68
2021/10/18 12:28:27;;;;;;;0.32;0.30;;;;;;;9.08;56.38;97843.59;5070450;28;20048;-67
2021/10/18 12:30:54;;;;;;;0.30;0.30;;;;;;;8.96;56.50;97851.88;5070057;28;20067;-68
2021/10/18 12:33:19;;;;;;;0.20;0.20;;;;;;;8.88;56.48;97849.56;5070179;28;20036;-67
2021/10/18 12:35:58;;;;;;;0.45;0.30;;;;;;;8.76;56.77;97842.25;5070252;28;20041;-67
2021/10/18 12:38:28;;;;;;;0.70;0.43;;;;;;;8.68;57.19;97850.84;5070096;28;20048;-69
2021/10/18 12:41:18;;;;;;;0.45;0.45;;;;;;;8.61;57.30;97857.56;5070420;28;20135;-67
2021/10/18 12:43:45;;;;;;;0.32;0.32;;;;;;;8.55;57.26;97862.13;5070313;28;20040;-67
2021/10/18 12:46:17;;;;;;;0.32;0.32;;;;;;;8.56;57.31;97847.38;5068896;28;20092;-67
2021/10/18 12:49:05;;;;;;;0.20;0.20;;;;;;;8.64;56.88;97863.38;5066005;28;20099;-67
2021/10/18 12:51:48;;;;;;;0.65;0.65;;;;;;;8.67;57.06;97860.16;5066256;28;20103;-68